sensor_id;sensor_type;location;lat;lon;timestamp;P1;durP1;ratioP1;P2;durP2;ratioP2
39400;SDS011;75540;50.000;7.360;2024-03-06T00:00:30;4.30;;;2.50;;
39400;SDS011;75540;50.000;7.360;2024-03-06T00:02:59;3.90;;;2.33;;
39400;SDS011;75540;50.000;7.360;2024-03-06T00:05:28;5.07;;;2.60;;
39400;SDS011;75540;50.000;7.360;2024-03-06T00:07:56;8.10;;;2.65;;
39400;SDS011;75540;50.000;7.360;2024-03-06T00:10:24;8.20;;;2.58;;
39400;SDS011;75540;50.000;7.360;2024-03-06T00:12:54;5.88;;;2.95;;
39400;SDS011;75540;50.000;7.360;2024-03-06T00:15:22;5.38;;;2.33;;
39400;SDS011;75540;50.000;7.360;2024-03-06T00:17:51;3.95;;;2.17;;
39400;SDS011;75540;50.000;7.360;2024-03-06T00:20:19;4.72;;;2.05;;
39400;SDS011;75540;50.000;7.360;2024-03-06T00:22:48;4.63;;;2.53;;
39400;SDS011;75540;50.000;7.360;2024-03-06T00:25:16;3.75;;;2.42;;
39400;SDS011;75540;50.000;7.360;2024-03-06T00:27:45;4.50;;;2.58;;
39400;SDS011;75540;50.000;7.360;2024-03-06T00:30:15;5.13;;;2.72;;
39400;SDS011;75540;50.000;7.360;2024-03-06T00:32:44;4.40;;;2.45;;
39400;SDS011;75540;50.000;7.360;2024-03-06T00:35:12;4.22;;;2.45;;
39400;SDS011;75540;50.000;7.360;2024-03-06T00:37:41;4.10;;;2.25;;
39400;SDS011;75540;50.000;7.360;2024-03-06T00:40:09;5.13;;;2.55;;
39400;SDS011;75540;50.000;7.360;2024-03-06T00:42:39;4.88;;;2.50;;
39400;SDS011;75540;50.000;7.360;2024-03-06T00:45:08;4.10;;;2.53;;
39400;SDS011;75540;50.000;7.360;2024-03-06T00:47:38;4.22;;;2.38;;
39400;SDS011;75540;50.000;7.360;2024-03-06T00:50:06;4.55;;;2.13;;
39400;SDS011;75540;50.000;7.360;2024-03-06T00:52:35;5.13;;;2.63;;
39400;SDS011;75540;50.000;7.360;2024-03-06T00:55:04;8.32;;;2.80;;
39400;SDS011;75540;50.000;7.360;2024-03-06T00:57:33;5.55;;;2.90;;
39400;SDS011;75540;50.000;7.360;2024-03-06T01:00:01;4.35;;;2.17;;
39400;SDS011;75540;50.000;7.360;2024-03-06T01:02:32;5.03;;;2.67;;
39400;SDS011;75540;50.000;7.360;2024-03-06T01:05:04;5.03;;;2.35;;
39400;SDS011;75540;50.000;7.360;2024-03-06T01:07:33;3.88;;;2.30;;
39400;SDS011;75540;50.000;7.360;2024-03-06T01:10:02;5.30;;;2.10;;
39400;SDS011;75540;50.000;7.360;2024-03-06T01:12:33;4.72;;;2.35;;
39400;SDS011;75540;50.000;7.360;2024-03-06T01:15:01;5.50;;;2.42;;
39400;SDS011;75540;50.000;7.360;2024-03-06T01:17:30;5.28;;;2.30;;
39400;SDS011;75540;50.000;7.360;2024-03-06T01:19:59;6.22;;;2.28;;
39400;SDS011;75540;50.000;7.360;2024-03-06T01:22:29;4.75;;;2.70;;
39400;SDS011;75540;50.000;7.360;2024-03-06T01:24:57;5.00;;;2.63;;
39400;SDS011;75540;50.000;7.360;2024-03-06T01:27:27;7.45;;;2.80;;
39400;SDS011;75540;50.000;7.360;2024-03-06T01:29:55;5.35;;;2.65;;
39400;SDS011;75540;50.000;7.360;2024-03-06T01:32:24;5.43;;;2.47;;
39400;SDS011;75540;50.000;7.360;2024-03-06T01:34:52;5.38;;;2.70;;
39400;SDS011;75540;50.000;7.360;2024-03-06T01:37:20;4.60;;;2.60;;
39400;SDS011;75540;50.000;7.360;2024-03-06T01:39:50;5.18;;;2.78;;
39400;SDS011;75540;50.000;7.360;2024-03-06T01:42:19;7.57;;;2.90;;
39400;SDS011;75540;50.000;7.360;2024-03-06T01:44:47;4.65;;;2.83;;
39400;SDS011;75540;50.000;7.360;2024-03-06T01:47:15;5.25;;;2.35;;
39400;SDS011;75540;50.000;7.360;2024-03-06T01:49:43;6.25;;;2.90;;
39400;SDS011;75540;50.000;7.360;2024-03-06T01:52:13;5.57;;;2.95;;
39400;SDS011;75540;50.000;7.360;2024-03-06T01:54:43;6.38;;;3.10;;
39400;SDS011;75540;50.000;7.360;2024-03-06T01:57:15;4.32;;;2.47;;
39400;SDS011;75540;50.000;7.360;2024-03-06T01:59:48;6.03;;;2.58;;
39400;SDS011;75540;50.000;7.360;2024-03-06T02:02:16;4.65;;;2.65;;
39400;SDS011;75540;50.000;7.360;2024-03-06T02:04:45;6.43;;;2.78;;
39400;SDS011;75540;50.000;7.360;2024-03-06T02:07:13;6.72;;;3.67;;
39400;SDS011;75540;50.000;7.360;2024-03-06T02:09:43;7.28;;;3.15;;
39400;SDS011;75540;50.000;7.360;2024-03-06T02:12:11;6.72;;;2.70;;
39400;SDS011;75540;50.000;7.360;2024-03-06T02:14:42;8.77;;;3.80;;
39400;SDS011;75540;50.000;7.360;2024-03-06T02:17:11;9.27;;;3.35;;
39400;SDS011;75540;50.000;7.360;2024-03-06T02:19:39;8.23;;;3.78;;
39400;SDS011;75540;50.000;7.360;2024-03-06T02:22:10;8.88;;;3.40;;
39400;SDS011;75540;50.000;7.360;2024-03-06T02:24:44;7.05;;;3.58;;
39400;SDS011;75540;50.000;7.360;2024-03-06T02:29:43;6.00;;;3.05;;
39400;SDS011;75540;50.000;7.360;2024-03-06T02:32:12;5.80;;;3.40;;
39400;SDS011;75540;50.000;7.360;2024-03-06T02:34:40;4.85;;;2.92;;
39400;SDS011;75540;50.000;7.360;2024-03-06T02:37:10;6.38;;;2.92;;
39400;SDS011;75540;50.000;7.360;2024-03-06T02:39:39;5.53;;;2.83;;
39400;SDS011;75540;50.000;7.360;2024-03-06T02:42:07;7.18;;;3.35;;
39400;SDS011;75540;50.000;7.360;2024-03-06T02:44:36;5.40;;;3.60;;
39400;SDS011;75540;50.000;7.360;2024-03-06T02:47:04;8.02;;;3.30;;
39400;SDS011;75540;50.000;7.360;2024-03-06T02:49:32;6.45;;;3.40;;
39400;SDS011;75540;50.000;7.360;2024-03-06T02:52:01;6.63;;;3.28;;
39400;SDS011;75540;50.000;7.360;2024-03-06T02:54:31;6.80;;;3.67;;
39400;SDS011;75540;50.000;7.360;2024-03-06T02:56:59;8.15;;;3.85;;
39400;SDS011;75540;50.000;7.360;2024-03-06T02:59:28;8.13;;;3.53;;
39400;SDS011;75540;50.000;7.360;2024-03-06T03:01:56;6.97;;;3.22;;
39400;SDS011;75540;50.000;7.360;2024-03-06T03:04:24;4.55;;;2.85;;
39400;SDS011;75540;50.000;7.360;2024-03-06T03:06:53;7.65;;;3.45;;
39400;SDS011;75540;50.000;7.360;2024-03-06T03:09:21;4.70;;;3.00;;
39400;SDS011;75540;50.000;7.360;2024-03-06T03:11:51;8.02;;;3.22;;
39400;SDS011;75540;50.000;7.360;2024-03-06T03:14:19;5.63;;;2.85;;
39400;SDS011;75540;50.000;7.360;2024-03-06T03:16:47;4.60;;;3.05;;
39400;SDS011;75540;50.000;7.360;2024-03-06T03:19:16;9.82;;;3.70;;
39400;SDS011;75540;50.000;7.360;2024-03-06T03:21:45;9.82;;;3.40;;
39400;SDS011;75540;50.000;7.360;2024-03-06T03:24:14;6.50;;;3.38;;
39400;SDS011;75540;50.000;7.360;2024-03-06T03:26:43;6.43;;;3.38;;
39400;SDS011;75540;50.000;7.360;2024-03-06T03:29:12;6.82;;;3.63;;
39400;SDS011;75540;50.000;7.360;2024-03-06T03:31:41;8.63;;;3.47;;
39400;SDS011;75540;50.000;7.360;2024-03-06T03:34:09;6.30;;;3.47;;
39400;SDS011;75540;50.000;7.360;2024-03-06T03:36:39;12.18;;;3.95;;
39400;SDS011;75540;50.000;7.360;2024-03-06T03:39:09;9.05;;;3.00;;
39400;SDS011;75540;50.000;7.360;2024-03-06T03:41:43;6.55;;;3.42;;
39400;SDS011;75540;50.000;7.360;2024-03-06T03:44:14;7.80;;;3.40;;
39400;SDS011;75540;50.000;7.360;2024-03-06T03:46:44;5.55;;;2.65;;
39400;SDS011;75540;50.000;7.360;2024-03-06T03:49:13;8.75;;;3.40;;
39400;SDS011;75540;50.000;7.360;2024-03-06T03:51:41;6.72;;;3.15;;
39400;SDS011;75540;50.000;7.360;2024-03-06T03:54:10;5.88;;;2.58;;
39400;SDS011;75540;50.000;7.360;2024-03-06T03:56:38;6.57;;;3.22;;
39400;SDS011;75540;50.000;7.360;2024-03-06T03:59:06;6.35;;;3.20;;
39400;SDS011;75540;50.000;7.360;2024-03-06T04:01:36;5.53;;;2.88;;
39400;SDS011;75540;50.000;7.360;2024-03-06T04:04:05;5.90;;;2.63;;
39400;SDS011;75540;50.000;7.360;2024-03-06T04:06:35;6.00;;;2.85;;
39400;SDS011;75540;50.000;7.360;2024-03-06T04:09:03;8.52;;;3.38;;
39400;SDS011;75540;50.000;7.360;2024-03-06T04:11:32;5.43;;;2.72;;
39400;SDS011;75540;50.000;7.360;2024-03-06T04:14:03;7.15;;;3.22;;
39400;SDS011;75540;50.000;7.360;2024-03-06T04:16:33;7.05;;;2.83;;
39400;SDS011;75540;50.000;7.360;2024-03-06T04:19:03;6.45;;;2.90;;
39400;SDS011;75540;50.000;7.360;2024-03-06T04:21:31;7.97;;;2.70;;
39400;SDS011;75540;50.000;7.360;2024-03-06T04:23:59;6.30;;;2.90;;
39400;SDS011;75540;50.000;7.360;2024-03-06T04:26:28;8.32;;;3.45;;
39400;SDS011;75540;50.000;7.360;2024-03-06T04:28:56;6.90;;;3.05;;
39400;SDS011;75540;50.000;7.360;2024-03-06T04:31:24;8.82;;;3.33;;
39400;SDS011;75540;50.000;7.360;2024-03-06T04:33:52;8.98;;;3.78;;
39400;SDS011;75540;50.000;7.360;2024-03-06T04:36:22;6.47;;;2.75;;
39400;SDS011;75540;50.000;7.360;2024-03-06T04:38:50;5.32;;;2.88;;
39400;SDS011;75540;50.000;7.360;2024-03-06T04:41:19;6.55;;;3.20;;
39400;SDS011;75540;50.000;7.360;2024-03-06T04:43:47;5.90;;;3.05;;
39400;SDS011;75540;50.000;7.360;2024-03-06T04:46:17;5.95;;;2.47;;
39400;SDS011;75540;50.000;7.360;2024-03-06T04:48:46;5.97;;;2.85;;
39400;SDS011;75540;50.000;7.360;2024-03-06T04:51:15;6.45;;;2.85;;
39400;SDS011;75540;50.000;7.360;2024-03-06T04:53:47;7.60;;;3.10;;
39400;SDS011;75540;50.000;7.360;2024-03-06T04:56:16;5.88;;;3.40;;
39400;SDS011;75540;50.000;7.360;2024-03-06T04:58:45;5.88;;;2.78;;
39400;SDS011;75540;50.000;7.360;2024-03-06T05:01:14;5.47;;;2.70;;
39400;SDS011;75540;50.000;7.360;2024-03-06T05:03:43;6.22;;;2.88;;
39400;SDS011;75540;50.000;7.360;2024-03-06T05:06:28;8.33;;;4.33;;
39400;SDS011;75540;50.000;7.360;2024-03-06T05:09:15;11.95;;;5.53;;
39400;SDS011;75540;50.000;7.360;2024-03-06T05:12:00;8.70;;;5.05;;
39400;SDS011;75540;50.000;7.360;2024-03-06T05:14:46;9.55;;;3.67;;
39400;SDS011;75540;50.000;7.360;2024-03-06T05:17:32;9.35;;;5.13;;
39400;SDS011;75540;50.000;7.360;2024-03-06T05:20:18;12.88;;;6.28;;
39400;SDS011;75540;50.000;7.360;2024-03-06T05:25:51;11.45;;;6.40;;
39400;SDS011;75540;50.000;7.360;2024-03-06T05:28:37;9.70;;;4.40;;
39400;SDS011;75540;50.000;7.360;2024-03-06T05:31:23;5.90;;;3.53;;
39400;SDS011;75540;50.000;7.360;2024-03-06T05:34:09;7.45;;;3.00;;
39400;SDS011;75540;50.000;7.360;2024-03-06T05:36:54;7.45;;;3.58;;
39400;SDS011;75540;50.000;7.360;2024-03-06T05:39:41;7.85;;;3.28;;
39400;SDS011;75540;50.000;7.360;2024-03-06T05:42:28;13.00;;;6.88;;
39400;SDS011;75540;50.000;7.360;2024-03-06T05:45:14;12.65;;;6.20;;
39400;SDS011;75540;50.000;7.360;2024-03-06T05:48:00;7.33;;;4.03;;
39400;SDS011;75540;50.000;7.360;2024-03-06T05:50:48;8.40;;;5.15;;
39400;SDS011;75540;50.000;7.360;2024-03-06T05:53:35;9.87;;;4.10;;
39400;SDS011;75540;50.000;7.360;2024-03-06T05:56:21;12.23;;;6.07;;
39400;SDS011;75540;50.000;7.360;2024-03-06T05:59:08;10.60;;;5.47;;
39400;SDS011;75540;50.000;7.360;2024-03-06T06:01:37;7.93;;;4.25;;
39400;SDS011;75540;50.000;7.360;2024-03-06T06:04:05;9.93;;;4.30;;
39400;SDS011;75540;50.000;7.360;2024-03-06T06:06:34;7.60;;;3.95;;
39400;SDS011;75540;50.000;7.360;2024-03-06T06:09:02;9.52;;;4.70;;
39400;SDS011;75540;50.000;7.360;2024-03-06T06:11:31;13.35;;;5.55;;
39400;SDS011;75540;50.000;7.360;2024-03-06T06:14:01;16.92;;;7.65;;
39400;SDS011;75540;50.000;7.360;2024-03-06T06:16:35;12.00;;;6.65;;
39400;SDS011;75540;50.000;7.360;2024-03-06T06:19:05;11.20;;;5.40;;
39400;SDS011;75540;50.000;7.360;2024-03-06T06:21:33;12.27;;;5.75;;
39400;SDS011;75540;50.000;7.360;2024-03-06T06:24:03;10.40;;;5.55;;
39400;SDS011;75540;50.000;7.360;2024-03-06T06:26:31;9.55;;;4.95;;
39400;SDS011;75540;50.000;7.360;2024-03-06T06:29:00;12.00;;;5.03;;
39400;SDS011;75540;50.000;7.360;2024-03-06T06:31:29;10.73;;;5.05;;
39400;SDS011;75540;50.000;7.360;2024-03-06T06:33:59;9.82;;;5.85;;
39400;SDS011;75540;50.000;7.360;2024-03-06T06:36:27;9.20;;;5.68;;
39400;SDS011;75540;50.000;7.360;2024-03-06T06:38:56;9.07;;;5.55;;
39400;SDS011;75540;50.000;7.360;2024-03-06T06:41:27;11.73;;;5.60;;
39400;SDS011;75540;50.000;7.360;2024-03-06T06:43:56;17.38;;;9.20;;
39400;SDS011;75540;50.000;7.360;2024-03-06T06:46:24;18.63;;;9.68;;
39400;SDS011;75540;50.000;7.360;2024-03-06T06:48:52;22.33;;;12.93;;
39400;SDS011;75540;50.000;7.360;2024-03-06T06:51:22;22.08;;;10.25;;
39400;SDS011;75540;50.000;7.360;2024-03-06T06:53:51;20.95;;;10.48;;
39400;SDS011;75540;50.000;7.360;2024-03-06T06:56:22;26.70;;;12.95;;
39400;SDS011;75540;50.000;7.360;2024-03-06T06:58:51;23.15;;;11.77;;
39400;SDS011;75540;50.000;7.360;2024-03-06T07:01:20;33.78;;;15.18;;
39400;SDS011;75540;50.000;7.360;2024-03-06T07:03:48;31.42;;;15.85;;
39400;SDS011;75540;50.000;7.360;2024-03-06T07:06:16;15.82;;;7.68;;
39400;SDS011;75540;50.000;7.360;2024-03-06T07:08:46;10.57;;;5.05;;
39400;SDS011;75540;50.000;7.360;2024-03-06T07:11:16;8.45;;;4.53;;
39400;SDS011;75540;50.000;7.360;2024-03-06T07:13:44;16.50;;;7.88;;
39400;SDS011;75540;50.000;7.360;2024-03-06T07:16:13;20.30;;;10.13;;
39400;SDS011;75540;50.000;7.360;2024-03-06T07:18:41;19.75;;;9.60;;
39400;SDS011;75540;50.000;7.360;2024-03-06T07:21:09;18.25;;;8.13;;
39400;SDS011;75540;50.000;7.360;2024-03-06T07:23:38;23.15;;;11.25;;
39400;SDS011;75540;50.000;7.360;2024-03-06T07:26:08;26.55;;;12.13;;
39400;SDS011;75540;50.000;7.360;2024-03-06T07:28:36;21.25;;;9.68;;
39400;SDS011;75540;50.000;7.360;2024-03-06T07:31:05;13.48;;;7.03;;
39400;SDS011;75540;50.000;7.360;2024-03-06T07:33:34;9.57;;;5.15;;
39400;SDS011;75540;50.000;7.360;2024-03-06T07:36:05;8.50;;;4.72;;
39400;SDS011;75540;50.000;7.360;2024-03-06T07:38:33;10.13;;;5.18;;
39400;SDS011;75540;50.000;7.360;2024-03-06T07:41:02;8.98;;;5.47;;
39400;SDS011;75540;50.000;7.360;2024-03-06T07:43:32;10.43;;;5.90;;
39400;SDS011;75540;50.000;7.360;2024-03-06T07:46:00;7.57;;;5.15;;
39400;SDS011;75540;50.000;7.360;2024-03-06T07:48:28;7.40;;;4.47;;
39400;SDS011;75540;50.000;7.360;2024-03-06T07:50:57;4.05;;;3.25;;
39400;SDS011;75540;50.000;7.360;2024-03-06T07:53:25;5.65;;;3.55;;
39400;SDS011;75540;50.000;7.360;2024-03-06T07:55:54;5.75;;;3.80;;
39400;SDS011;75540;50.000;7.360;2024-03-06T07:58:22;6.70;;;3.13;;
39400;SDS011;75540;50.000;7.360;2024-03-06T08:00:52;7.72;;;3.80;;
39400;SDS011;75540;50.000;7.360;2024-03-06T08:03:22;8.45;;;3.72;;
39400;SDS011;75540;50.000;7.360;2024-03-06T08:05:51;5.93;;;2.83;;
39400;SDS011;75540;50.000;7.360;2024-03-06T08:08:20;7.07;;;3.10;;
39400;SDS011;75540;50.000;7.360;2024-03-06T08:10:49;6.70;;;3.20;;
39400;SDS011;75540;50.000;7.360;2024-03-06T08:13:17;5.55;;;2.92;;
39400;SDS011;75540;50.000;7.360;2024-03-06T08:15:46;5.28;;;3.17;;
39400;SDS011;75540;50.000;7.360;2024-03-06T08:18:16;7.55;;;3.53;;
39400;SDS011;75540;50.000;7.360;2024-03-06T08:20:44;6.53;;;3.28;;
39400;SDS011;75540;50.000;7.360;2024-03-06T08:23:13;5.85;;;3.03;;
39400;SDS011;75540;50.000;7.360;2024-03-06T08:25:41;5.32;;;2.90;;
39400;SDS011;75540;50.000;7.360;2024-03-06T08:28:09;6.50;;;3.42;;
39400;SDS011;75540;50.000;7.360;2024-03-06T08:30:38;7.80;;;3.53;;
39400;SDS011;75540;50.000;7.360;2024-03-06T08:33:06;8.45;;;2.88;;
39400;SDS011;75540;50.000;7.360;2024-03-06T08:35:36;5.40;;;3.08;;
39400;SDS011;75540;50.000;7.360;2024-03-06T08:38:04;6.63;;;3.50;;
39400;SDS011;75540;50.000;7.360;2024-03-06T08:40:34;4.70;;;2.50;;
39400;SDS011;75540;50.000;7.360;2024-03-06T08:43:04;5.88;;;3.08;;
39400;SDS011;75540;50.000;7.360;2024-03-06T08:45:32;6.18;;;2.65;;
39400;SDS011;75540;50.000;7.360;2024-03-06T08:48:00;4.18;;;2.72;;
39400;SDS011;75540;50.000;7.360;2024-03-06T08:50:30;4.40;;;2.50;;
39400;SDS011;75540;50.000;7.360;2024-03-06T08:53:00;6.10;;;2.80;;
39400;SDS011;75540;50.000;7.360;2024-03-06T08:55:29;6.13;;;3.05;;
39400;SDS011;75540;50.000;7.360;2024-03-06T08:57:57;5.20;;;3.00;;
39400;SDS011;75540;50.000;7.360;2024-03-06T09:00:28;4.97;;;2.55;;
39400;SDS011;75540;50.000;7.360;2024-03-06T09:02:56;6.13;;;2.70;;
39400;SDS011;75540;50.000;7.360;2024-03-06T09:05:26;6.50;;;2.92;;
39400;SDS011;75540;50.000;7.360;2024-03-06T09:07:54;5.55;;;2.70;;
39400;SDS011;75540;50.000;7.360;2024-03-06T09:10:29;6.40;;;3.15;;
39400;SDS011;75540;50.000;7.360;2024-03-06T09:12:57;6.03;;;3.13;;
39400;SDS011;75540;50.000;7.360;2024-03-06T09:15:26;4.13;;;2.70;;
39400;SDS011;75540;50.000;7.360;2024-03-06T09:17:54;5.07;;;2.88;;
39400;SDS011;75540;50.000;7.360;2024-03-06T09:20:24;4.97;;;2.88;;
39400;SDS011;75540;50.000;7.360;2024-03-06T09:22:52;5.50;;;3.38;;
39400;SDS011;75540;50.000;7.360;2024-03-06T09:25:23;5.78;;;2.33;;
39400;SDS011;75540;50.000;7.360;2024-03-06T09:27:57;4.22;;;2.55;;
39400;SDS011;75540;50.000;7.360;2024-03-06T09:30:26;4.28;;;2.50;;
39400;SDS011;75540;50.000;7.360;2024-03-06T09:32:55;4.88;;;2.58;;
39400;SDS011;75540;50.000;7.360;2024-03-06T09:35:24;5.90;;;2.25;;
39400;SDS011;75540;50.000;7.360;2024-03-06T09:37:52;5.25;;;2.35;;
39400;SDS011;75540;50.000;7.360;2024-03-06T09:40:21;4.63;;;2.55;;
39400;SDS011;75540;50.000;7.360;2024-03-06T09:42:50;4.53;;;2.40;;
39400;SDS011;75540;50.000;7.360;2024-03-06T09:45:21;8.13;;;3.70;;
39400;SDS011;75540;50.000;7.360;2024-03-06T09:47:50;3.55;;;2.50;;
39400;SDS011;75540;50.000;7.360;2024-03-06T09:50:22;3.42;;;1.98;;
39400;SDS011;75540;50.000;7.360;2024-03-06T09:52:53;5.30;;;2.25;;
39400;SDS011;75540;50.000;7.360;2024-03-06T09:55:23;4.20;;;2.50;;
39400;SDS011;75540;50.000;7.360;2024-03-06T09:57:54;5.22;;;2.55;;
39400;SDS011;75540;50.000;7.360;2024-03-06T10:00:24;6.30;;;4.00;;
39400;SDS011;75540;50.000;7.360;2024-03-06T10:02:54;6.18;;;2.85;;
39400;SDS011;75540;50.000;7.360;2024-03-06T10:05:27;6.13;;;2.92;;
39400;SDS011;75540;50.000;7.360;2024-03-06T10:07:57;2.05;;;1.70;;
39400;SDS011;75540;50.000;7.360;2024-03-06T10:10:27;4.93;;;1.73;;
39400;SDS011;75540;50.000;7.360;2024-03-06T10:12:56;2.65;;;1.60;;
39400;SDS011;75540;50.000;7.360;2024-03-06T10:15:30;2.42;;;1.48;;
39400;SDS011;75540;50.000;7.360;2024-03-06T10:18:12;3.10;;;1.92;;
39400;SDS011;75540;50.000;7.360;2024-03-06T10:20:42;3.08;;;1.60;;
39400;SDS011;75540;50.000;7.360;2024-03-06T10:23:11;2.85;;;1.48;;
39400;SDS011;75540;50.000;7.360;2024-03-06T10:25:42;4.93;;;2.25;;
39400;SDS011;75540;50.000;7.360;2024-03-06T10:28:11;6.85;;;3.05;;
39400;SDS011;75540;50.000;7.360;2024-03-06T10:30:41;4.43;;;1.60;;
39400;SDS011;75540;50.000;7.360;2024-03-06T10:33:10;2.55;;;1.42;;
39400;SDS011;75540;50.000;7.360;2024-03-06T10:35:40;2.40;;;1.63;;
39400;SDS011;75540;50.000;7.360;2024-03-06T10:38:09;2.17;;;1.23;;
39400;SDS011;75540;50.000;7.360;2024-03-06T10:40:39;2.35;;;1.38;;
39400;SDS011;75540;50.000;7.360;2024-03-06T10:43:08;3.30;;;1.50;;
39400;SDS011;75540;50.000;7.360;2024-03-06T10:45:49;1.40;;;1.00;;
39400;SDS011;75540;50.000;7.360;2024-03-06T10:48:18;4.05;;;1.52;;
39400;SDS011;75540;50.000;7.360;2024-03-06T10:50:48;1.98;;;0.82;;
39400;SDS011;75540;50.000;7.360;2024-03-06T10:53:17;4.43;;;1.00;;
39400;SDS011;75540;50.000;7.360;2024-03-06T10:55:49;3.30;;;1.10;;
39400;SDS011;75540;50.000;7.360;2024-03-06T10:58:18;4.30;;;1.20;;
39400;SDS011;75540;50.000;7.360;2024-03-06T11:00:49;3.20;;;1.05;;
39400;SDS011;75540;50.000;7.360;2024-03-06T11:03:19;2.17;;;1.15;;
39400;SDS011;75540;50.000;7.360;2024-03-06T11:05:47;3.17;;;1.13;;
39400;SDS011;75540;50.000;7.360;2024-03-06T11:08:18;4.05;;;1.90;;
39400;SDS011;75540;50.000;7.360;2024-03-06T11:10:48;2.95;;;1.55;;
39400;SDS011;75540;50.000;7.360;2024-03-06T11:13:23;3.15;;;1.38;;
39400;SDS011;75540;50.000;7.360;2024-03-06T11:15:56;2.58;;;1.27;;
39400;SDS011;75540;50.000;7.360;2024-03-06T11:18:41;2.25;;;1.60;;
39400;SDS011;75540;50.000;7.360;2024-03-06T11:21:28;2.22;;;1.05;;
39400;SDS011;75540;50.000;7.360;2024-03-06T11:24:13;3.08;;;1.40;;
39400;SDS011;75540;50.000;7.360;2024-03-06T11:26:43;2.22;;;1.23;;
39400;SDS011;75540;50.000;7.360;2024-03-06T11:29:18;2.13;;;1.50;;
39400;SDS011;75540;50.000;7.360;2024-03-06T11:32:05;2.58;;;1.25;;
39400;SDS011;75540;50.000;7.360;2024-03-06T11:34:36;2.92;;;1.20;;
39400;SDS011;75540;50.000;7.360;2024-03-06T11:37:05;2.03;;;1.30;;
39400;SDS011;75540;50.000;7.360;2024-03-06T11:39:37;4.75;;;1.48;;
39400;SDS011;75540;50.000;7.360;2024-03-06T11:42:08;3.05;;;1.27;;
39400;SDS011;75540;50.000;7.360;2024-03-06T11:44:51;2.33;;;1.38;;
39400;SDS011;75540;50.000;7.360;2024-03-06T11:47:23;3.13;;;1.10;;
39400;SDS011;75540;50.000;7.360;2024-03-06T11:49:51;8.70;;;1.60;;
39400;SDS011;75540;50.000;7.360;2024-03-06T11:52:21;2.58;;;1.45;;
39400;SDS011;75540;50.000;7.360;2024-03-06T11:54:50;3.90;;;2.28;;
39400;SDS011;75540;50.000;7.360;2024-03-06T11:57:19;5.57;;;3.03;;
39400;SDS011;75540;50.000;7.360;2024-03-06T11:59:51;3.75;;;2.17;;
39400;SDS011;75540;50.000;7.360;2024-03-06T12:02:20;2.17;;;1.80;;
39400;SDS011;75540;50.000;7.360;2024-03-06T12:04:50;3.13;;;1.58;;
39400;SDS011;75540;50.000;7.360;2024-03-06T12:07:20;4.45;;;2.00;;
39400;SDS011;75540;50.000;7.360;2024-03-06T12:09:49;5.32;;;2.30;;
39400;SDS011;75540;50.000;7.360;2024-03-06T12:12:19;3.03;;;2.00;;
39400;SDS011;75540;50.000;7.360;2024-03-06T12:14:55;6.00;;;2.13;;
39400;SDS011;75540;50.000;7.360;2024-03-06T12:17:25;3.90;;;2.15;;
39400;SDS011;75540;50.000;7.360;2024-03-06T12:19:56;3.80;;;2.50;;
39400;SDS011;75540;50.000;7.360;2024-03-06T12:22:24;6.18;;;2.88;;
39400;SDS011;75540;50.000;7.360;2024-03-06T12:24:57;3.72;;;2.03;;
39400;SDS011;75540;50.000;7.360;2024-03-06T12:27:26;5.80;;;3.00;;
39400;SDS011;75540;50.000;7.360;2024-03-06T12:29:55;3.95;;;2.63;;
39400;SDS011;75540;50.000;7.360;2024-03-06T12:32:23;5.32;;;2.35;;
39400;SDS011;75540;50.000;7.360;2024-03-06T12:34:58;5.15;;;2.50;;
39400;SDS011;75540;50.000;7.360;2024-03-06T12:37:28;3.65;;;1.88;;
39400;SDS011;75540;50.000;7.360;2024-03-06T12:40:02;3.28;;;2.20;;
39400;SDS011;75540;50.000;7.360;2024-03-06T12:42:32;6.53;;;2.83;;
39400;SDS011;75540;50.000;7.360;2024-03-06T12:45:00;4.18;;;2.03;;
39400;SDS011;75540;50.000;7.360;2024-03-06T12:47:30;4.78;;;1.90;;
39400;SDS011;75540;50.000;7.360;2024-03-06T12:50:00;2.85;;;1.50;;
39400;SDS011;75540;50.000;7.360;2024-03-06T12:52:28;21.33;;;10.70;;
39400;SDS011;75540;50.000;7.360;2024-03-06T12:54:56;11.07;;;4.30;;
39400;SDS011;75540;50.000;7.360;2024-03-06T12:57:25;4.43;;;3.20;;
39400;SDS011;75540;50.000;7.360;2024-03-06T12:59:54;2.97;;;2.10;;
39400;SDS011;75540;50.000;7.360;2024-03-06T13:02:22;3.63;;;1.80;;
39400;SDS011;75540;50.000;7.360;2024-03-06T13:04:51;6.03;;;1.42;;
39400;SDS011;75540;50.000;7.360;2024-03-06T13:07:21;3.55;;;1.60;;
39400;SDS011;75540;50.000;7.360;2024-03-06T13:09:49;2.10;;;1.50;;
39400;SDS011;75540;50.000;7.360;2024-03-06T13:12:18;3.00;;;1.80;;
39400;SDS011;75540;50.000;7.360;2024-03-06T13:14:47;4.80;;;2.00;;
39400;SDS011;75540;50.000;7.360;2024-03-06T13:17:15;5.05;;;2.70;;
39400;SDS011;75540;50.000;7.360;2024-03-06T13:19:43;7.78;;;3.72;;
39400;SDS011;75540;50.000;7.360;2024-03-06T13:22:11;4.38;;;2.20;;
39400;SDS011;75540;50.000;7.360;2024-03-06T13:24:41;3.08;;;1.80;;
39400;SDS011;75540;50.000;7.360;2024-03-06T13:27:12;3.00;;;1.52;;
39400;SDS011;75540;50.000;7.360;2024-03-06T13:29:40;4.07;;;1.40;;
39400;SDS011;75540;50.000;7.360;2024-03-06T13:32:09;2.58;;;1.25;;
39400;SDS011;75540;50.000;7.360;2024-03-06T13:34:37;3.05;;;1.63;;
39400;SDS011;75540;50.000;7.360;2024-03-06T13:37:06;4.50;;;1.60;;
39400;SDS011;75540;50.000;7.360;2024-03-06T13:39:36;2.95;;;1.40;;
39400;SDS011;75540;50.000;7.360;2024-03-06T13:42:09;3.97;;;1.90;;
39400;SDS011;75540;50.000;7.360;2024-03-06T13:44:37;2.65;;;1.60;;
39400;SDS011;75540;50.000;7.360;2024-03-06T13:47:06;3.50;;;1.60;;
39400;SDS011;75540;50.000;7.360;2024-03-06T13:49:35;2.05;;;1.40;;
39400;SDS011;75540;50.000;7.360;2024-03-06T13:52:05;4.63;;;1.60;;
39400;SDS011;75540;50.000;7.360;2024-03-06T13:54:37;2.78;;;1.38;;
39400;SDS011;75540;50.000;7.360;2024-03-06T13:57:06;3.00;;;1.45;;
39400;SDS011;75540;50.000;7.360;2024-03-06T13:59:36;3.47;;;1.55;;
39400;SDS011;75540;50.000;7.360;2024-03-06T14:02:05;7.43;;;3.10;;
39400;SDS011;75540;50.000;7.360;2024-03-06T14:04:34;7.65;;;3.80;;
39400;SDS011;75540;50.000;7.360;2024-03-06T14:07:03;14.18;;;6.00;;
39400;SDS011;75540;50.000;7.360;2024-03-06T14:09:31;8.55;;;4.15;;
39400;SDS011;75540;50.000;7.360;2024-03-06T14:12:00;4.70;;;2.28;;
39400;SDS011;75540;50.000;7.360;2024-03-06T14:14:30;4.30;;;2.42;;
39400;SDS011;75540;50.000;7.360;2024-03-06T14:16:58;4.45;;;2.50;;
39400;SDS011;75540;50.000;7.360;2024-03-06T14:19:27;3.70;;;1.90;;
39400;SDS011;75540;50.000;7.360;2024-03-06T14:21:56;3.58;;;2.00;;
39400;SDS011;75540;50.000;7.360;2024-03-06T14:24:29;5.07;;;3.20;;
39400;SDS011;75540;50.000;7.360;2024-03-06T14:26:57;7.07;;;2.63;;
39400;SDS011;75540;50.000;7.360;2024-03-06T14:29:26;5.20;;;2.53;;
39400;SDS011;75540;50.000;7.360;2024-03-06T14:31:57;5.00;;;2.42;;
39400;SDS011;75540;50.000;7.360;2024-03-06T14:34:25;4.22;;;2.42;;
39400;SDS011;75540;50.000;7.360;2024-03-06T14:36:54;3.25;;;2.00;;
39400;SDS011;75540;50.000;7.360;2024-03-06T14:39:22;4.45;;;2.75;;
39400;SDS011;75540;50.000;7.360;2024-03-06T14:41:52;6.00;;;2.33;;
39400;SDS011;75540;50.000;7.360;2024-03-06T14:44:21;3.35;;;1.92;;
39400;SDS011;75540;50.000;7.360;2024-03-06T14:46:49;4.18;;;2.67;;
39400;SDS011;75540;50.000;7.360;2024-03-06T14:49:19;5.65;;;2.88;;
39400;SDS011;75540;50.000;7.360;2024-03-06T14:51:47;6.00;;;3.38;;
39400;SDS011;75540;50.000;7.360;2024-03-06T14:54:16;7.75;;;3.33;;
39400;SDS011;75540;50.000;7.360;2024-03-06T14:56:44;6.63;;;3.80;;
39400;SDS011;75540;50.000;7.360;2024-03-06T14:59:13;8.20;;;3.05;;
39400;SDS011;75540;50.000;7.360;2024-03-06T15:01:41;6.82;;;3.90;;
39400;SDS011;75540;50.000;7.360;2024-03-06T15:04:11;11.10;;;3.75;;
39400;SDS011;75540;50.000;7.360;2024-03-06T15:06:40;6.15;;;3.65;;
39400;SDS011;75540;50.000;7.360;2024-03-06T15:09:09;5.72;;;3.33;;